Time;durP1;ratioP1;P1;durP2;ratioP2;P2;SDS_P1;SDS_P2;PMS_P1;PMS_P2;Temp;Humidity;BMP_temperature;BMP_pressure;BME280_temperature;BME280_humidity;BME280_pressure;Samples;Min_cycle;Max_cycle;Signal;HPM_P1;HPM_P2
2022/02/25 00:02:05;;;;;;;;;5.00;5.00;;;;;;;;5075082;28;46259;-71
2022/02/25 00:04:30;;;;;;;;;3.25;3.25;;;;;;;;5075743;28;47021;-71
2022/02/25 00:06:55;;;;;;;;;6.50;4.00;;;;;;;;5077047;27;45455;-71
2022/02/25 00:09:20;;;;;;;;;4.25;3.75;;;;;;;;5076304;27;45571;-71
2022/02/25 00:11:46;;;;;;;;;5.00;4.00;;;;;;;;5075374;27;46438;-71
2022/02/25 00:14:11;;;;;;;;;4.50;2.75;;;;;;;;5076063;28;45391;-71
2022/02/25 00:16:36;;;;;;;;;5.50;3.75;;;;;;;;5076175;28;45356;-71
2022/02/25 00:19:02;;;;;;;;;5.75;4.00;;;;;;;;5077003;28;45654;-71
2022/02/25 00:21:27;;;;;;;;;5.50;4.00;;;;;;;;5071037;28;45508;-71
2022/02/25 00:23:52;;;;;;;;;4.00;4.00;;;;;;;;5076212;27;50769;-71
2022/02/25 00:26:17;;;;;;;;;2.50;2.50;;;;;;;;5075364;28;45512;-71
2022/02/25 00:28:43;;;;;;;;;7.00;4.00;;;;;;;;5075755;27;45481;-71
2022/02/25 00:31:08;;;;;;;;;2.75;2.75;;;;;;;;5076520;28;46245;-71
2022/02/25 00:33:33;;;;;;;;;3.00;3.00;;;;;;;;5063419;28;45524;-71
2022/02/25 00:35:58;;;;;;;;;5.50;5.00;;;;;;;;5075348;28;45339;-71
2022/02/25 00:38:23;;;;;;;;;5.00;4.25;;;;;;;;5075636;28;45688;-71
2022/02/25 00:40:49;;;;;;;;;1.75;1.75;;;;;;;;5074928;28;45341;-71
2022/02/25 00:43:14;;;;;;;;;4.75;4.00;;;;;;;;5076403;28;45424;-71
2022/02/25 00:45:39;;;;;;;;;2.50;2.50;;;;;;;;5075022;27;45547;-72
2022/02/25 00:48:05;;;;;;;;;3.00;3.00;;;;;;;;5076078;27;45519;-72
2022/02/25 00:50:30;;;;;;;;;3.75;1.75;;;;;;;;5075014;27;45355;-71
2022/02/25 00:52:55;;;;;;;;;4.00;4.00;;;;;;;;5075411;28;46303;-71
2022/02/25 00:55:21;;;;;;;;;3.25;3.25;;;;;;;;5076710;28;45562;-71
2022/02/25 00:57:46;;;;;;;;;3.25;3.25;;;;;;;;5075395;27;45272;-71
2022/02/25 01:00:15;;;;;;;;;5.00;4.00;;;;;;;;5074709;27;45540;-71
2022/02/25 01:02:41;;;;;;;;;3.50;3.00;;;;;;;;5074777;27;45832;-71
2022/02/25 01:05:06;;;;;;;;;3.50;2.00;;;;;;;;5075094;28;45434;-71
2022/02/25 01:07:32;;;;;;;;;3.25;3.25;;;;;;;;5087931;27;45592;-71
2022/02/25 01:09:57;;;;;;;;;2.75;1.25;;;;;;;;5075367;28;46337;-71
2022/02/25 01:12:22;;;;;;;;;5.25;3.00;;;;;;;;5056771;28;45545;-71
2022/02/25 01:14:47;;;;;;;;;3.25;3.00;;;;;;;;5074746;28;45399;-71
2022/02/25 01:17:13;;;;;;;;;4.25;3.75;;;;;;;;5080451;27;45470;-71
2022/02/25 01:19:38;;;;;;;;;4.25;4.00;;;;;;;;5074437;28;45340;-72
2022/02/25 01:22:03;;;;;;;;;2.75;2.75;;;;;;;;5075811;28;45407;-71
2022/02/25 01:24:28;;;;;;;;;5.00;3.00;;;;;;;;5074476;28;45767;-71
2022/02/25 01:26:53;;;;;;;;;6.00;4.25;;;;;;;;5074510;28;45458;-71
2022/02/25 01:29:19;;;;;;;;;2.50;2.00;;;;;;;;5074503;28;46064;-71
2022/02/25 01:31:45;;;;;;;;;3.00;3.00;;;;;;;;5074433;28;45579;-72
2022/02/25 01:34:10;;;;;;;;;2.00;2.00;;;;;;;;5070752;28;45402;-71
2022/02/25 01:36:35;;;;;;;;;4.50;3.25;;;;;;;;5074170;27;45459;-71
2022/02/25 01:39:02;;;;;;;;;2.00;2.00;;;;;;;;5069597;28;45504;-71
2022/02/25 01:41:28;;;;;;;;;4.75;3.00;;;;;;;;5063356;28;45283;-71
2022/02/25 01:44:14;;;;;;;;;3.25;2.50;;;;;;;;5074634;27;45288;-71
2022/02/25 01:46:39;;;;;;;;;7.75;3.50;;;;;;;;5072074;27;45640;-71
2022/02/25 01:49:04;;;;;;;;;3.25;2.50;;;;;;;;5075256;28;45463;-71
2022/02/25 01:51:29;;;;;;;;;5.50;3.50;;;;;;;;5075442;27;45374;-71
2022/02/25 01:53:55;;;;;;;;;3.00;3.00;;;;;;;;5074450;28;45264;-71
2022/02/25 01:56:20;;;;;;;;;3.25;2.75;;;;;;;;5073697;28;45309;-71
2022/02/25 01:58:45;;;;;;;;;3.50;2.00;;;;;;;;5073860;28;45576;-71
2022/02/25 02:01:10;;;;;;;;;3.50;3.25;;;;;;;;5075351;28;45351;-71
2022/02/25 02:03:35;;;;;;;;;4.00;3.00;;;;;;;;5076369;27;45326;-71
2022/02/25 02:06:01;;;;;;;;;4.00;3.50;;;;;;;;5069154;28;45423;-71
2022/02/25 02:08:26;;;;;;;;;4.00;2.75;;;;;;;;5062771;28;45478;-71
2022/02/25 02:10:52;;;;;;;;;5.00;2.25;;;;;;;;5074752;27;45410;-71
2022/02/25 02:13:17;;;;;;;;;2.00;2.00;;;;;;;;5075202;27;45377;-71
2022/02/25 02:15:42;;;;;;;;;1.25;1.25;;;;;;;;5074032;28;45544;-71
2022/02/25 02:18:08;;;;;;;;;3.00;3.00;;;;;;;;5074532;28;46571;-71
2022/02/25 02:20:33;;;;;;;;;3.75;2.25;;;;;;;;5074150;28;45399;-71
2022/02/25 02:22:58;;;;;;;;;1.00;1.00;;;;;;;;5074984;27;45406;-71
2022/02/25 02:25:23;;;;;;;;;3.00;3.00;;;;;;;;5074945;27;45456;-71
2022/02/25 02:30:32;;;;;;;;;3.00;3.00;;;;;;;;5076058;27;45493;-71
2022/02/25 02:32:58;;;;;;;;;2.25;2.00;;;;;;;;5073662;28;45499;-71
2022/02/25 02:35:23;;;;;;;;;2.50;2.50;;;;;;;;5073316;28;45530;-71
2022/02/25 02:37:48;;;;;;;;;6.25;2.50;;;;;;;;5072976;28;45377;-71
2022/02/25 02:40:13;;;;;;;;;4.00;2.75;;;;;;;;5074671;28;45415;-71
2022/02/25 02:42:39;;;;;;;;;3.00;2.00;;;;;;;;5074111;28;45312;-71
2022/02/25 02:45:04;;;;;;;;;3.00;1.00;;;;;;;;5073618;28;45419;-71
2022/02/25 02:47:29;;;;;;;;;3.00;2.00;;;;;;;;5076346;27;45493;-71
2022/02/25 02:49:55;;;;;;;;;4.00;1.75;;;;;;;;5085465;27;45430;-71
2022/02/25 02:52:20;;;;;;;;;2.00;1.00;;;;;;;;5077902;28;45359;-72
2022/02/25 02:54:45;;;;;;;;;4.00;1.75;;;;;;;;5077025;28;45629;-71
2022/02/25 02:57:10;;;;;;;;;1.75;1.75;;;;;;;;5076747;27;45335;-71
2022/02/25 02:59:35;;;;;;;;;2.75;2.75;;;;;;;;5076891;27;45563;-71
2022/02/25 03:02:01;;;;;;;;;2.50;2.50;;;;;;;;5077115;27;45430;-71
2022/02/25 03:04:26;;;;;;;;;3.25;2.25;;;;;;;;5077479;27;45269;-72
2022/02/25 03:06:51;;;;;;;;;4.25;2.75;;;;;;;;5077768;28;45484;-71
2022/02/25 03:09:17;;;;;;;;;1.00;1.00;;;;;;;;5077898;27;45256;-71
2022/02/25 03:11:42;;;;;;;;;1.50;1.50;;;;;;;;5077874;27;45427;-71
2022/02/25 03:14:08;;;;;;;;;2.00;2.00;;;;;;;;5077072;28;45476;-71
2022/02/25 03:16:33;;;;;;;;;2.00;1.00;;;;;;;;5082897;27;45490;-71
2022/02/25 03:18:58;;;;;;;;;7.25;1.50;;;;;;;;5077017;28;45422;-71
2022/02/25 03:21:24;;;;;;;;;4.00;2.75;;;;;;;;5076788;28;45402;-71
2022/02/25 03:23:50;;;;;;;;;0.75;0.75;;;;;;;;5075895;28;45319;-71
2022/02/25 03:26:15;;;;;;;;;3.75;1.75;;;;;;;;5076481;28;45578;-71
2022/02/25 03:28:40;;;;;;;;;2.75;1.75;;;;;;;;5076454;28;45505;-71
2022/02/25 03:31:05;;;;;;;;;1.25;1.25;;;;;;;;5077548;27;45583;-71
2022/02/25 03:33:30;;;;;;;;;1.25;1.25;;;;;;;;5071519;27;45398;-71
2022/02/25 03:35:56;;;;;;;;;3.50;1.00;;;;;;;;5076443;27;45371;-71
2022/02/25 03:38:23;;;;;;;;;4.25;2.00;;;;;;;;5075920;28;45370;-71
2022/02/25 03:40:48;;;;;;;;;4.75;2.00;;;;;;;;5076321;28;45409;-71
2022/02/25 03:43:13;;;;;;;;;1.25;1.25;;;;;;;;5076951;27;45491;-71
2022/02/25 03:45:38;;;;;;;;;0.00;0.00;;;;;;;;5076469;28;46308;-71
2022/02/25 03:48:04;;;;;;;;;1.50;1.50;;;;;;;;5075300;28;45397;-71
2022/02/25 03:50:29;;;;;;;;;1.00;1.00;;;;;;;;5075949;28;45660;-71
2022/02/25 03:52:54;;;;;;;;;3.25;2.00;;;;;;;;5058059;28;45486;-71
2022/02/25 03:55:19;;;;;;;;;2.00;2.00;;;;;;;;5061234;28;45415;-71
2022/02/25 03:57:44;;;;;;;;;3.00;1.75;;;;;;;;5074136;28;45342;-71
2022/02/25 04:00:11;;;;;;;;;3.50;2.00;;;;;;;;5076308;27;45555;-71
2022/02/25 04:02:36;;;;;;;;;1.00;1.00;;;;;;;;5074105;27;45474;-71
2022/02/25 04:05:02;;;;;;;;;1.00;1.00;;;;;;;;5060978;28;45477;-71
2022/02/25 04:07:27;;;;;;;;;2.00;2.00;;;;;;;;5075877;28;45468;-71
2022/02/25 04:09:52;;;;;;;;;2.25;2.25;;;;;;;;5076100;27;45297;-71
2022/02/25 04:12:17;;;;;;;;;2.25;1.25;;;;;;;;5075758;27;45522;-71
2022/02/25 04:14:42;;;;;;;;;1.25;1.25;;;;;;;;5075831;27;45446;-71
2022/02/25 04:17:07;;;;;;;;;3.00;1.75;;;;;;;;5073658;28;45554;-71
2022/02/25 04:19:33;;;;;;;;;3.25;2.50;;;;;;;;5073663;28;45348;-72
2022/02/25 04:21:58;;;;;;;;;2.25;1.00;;;;;;;;5076120;27;45293;-71
2022/02/25 04:24:24;;;;;;;;;3.00;1.00;;;;;;;;5076528;27;45418;-72
2022/02/25 04:26:49;;;;;;;;;2.00;2.00;;;;;;;;5083551;27;45435;-71
2022/02/25 04:29:16;;;;;;;;;2.00;1.75;;;;;;;;5075536;28;45403;-71
2022/02/25 04:31:41;;;;;;;;;1.00;1.00;;;;;;;;5075324;28;46574;-71
2022/02/25 04:34:06;;;;;;;;;1.00;1.00;;;;;;;;5062113;28;45405;-71
2022/02/25 04:36:38;;;;;;;;;1.00;1.00;;;;;;;;5072567;27;45470;-71
2022/02/25 04:39:05;;;;;;;;;1.00;1.00;;;;;;;;5075428;28;45593;-71
2022/02/25 04:41:30;;;;;;;;;2.00;2.00;;;;;;;;5075284;28;48512;-71
2022/02/25 04:43:55;;;;;;;;;3.75;3.00;;;;;;;;5075114;28;46706;-71
2022/02/25 04:46:24;;;;;;;;;2.00;1.00;;;;;;;;5076337;27;45492;-71
2022/02/25 04:48:49;;;;;;;;;1.25;1.00;;;;;;;;5063661;28;45520;-71
2022/02/25 04:51:17;;;;;;;;;3.00;1.00;;;;;;;;5070043;28;46638;-71
2022/02/25 04:53:45;;;;;;;;;4.25;0.75;;;;;;;;5074599;27;46222;-71
2022/02/25 04:56:11;;;;;;;;;2.25;1.75;;;;;;;;5075194;28;45503;-72
2022/02/25 04:58:36;;;;;;;;;0.75;0.75;;;;;;;;5075252;28;45746;-71
2022/02/25 05:01:02;;;;;;;;;1.00;1.00;;;;;;;;5076180;27;45565;-70
2022/02/25 05:03:27;;;;;;;;;1.00;1.00;;;;;;;;5065917;27;45512;-71
2022/02/25 05:05:53;;;;;;;;;1.00;1.00;;;;;;;;5067082;27;45380;-70
2022/02/25 05:08:18;;;;;;;;;1.00;1.00;;;;;;;;5075134;28;45457;-71
2022/02/25 05:10:43;;;;;;;;;2.25;1.25;;;;;;;;5075333;28;45462;-70
2022/02/25 05:13:08;;;;;;;;;2.00;1.00;;;;;;;;5083428;27;46069;-71
2022/02/25 05:21:02;;;;;;;;;0.75;0.75;;;;;;;;5074607;28;45308;-71
2022/02/25 05:23:27;;;;;;;;;1.00;0.25;;;;;;;;5073707;28;45431;-71
2022/02/25 05:25:52;;;;;;;;;1.50;0.00;;;;;;;;5074739;27;45386;-71
2022/02/25 05:28:18;;;;;;;;;2.50;1.75;;;;;;;;5075503;28;45386;-71
2022/02/25 05:30:43;;;;;;;;;1.00;1.00;;;;;;;;5074850;28;45557;-71
2022/02/25 05:33:08;;;;;;;;;1.00;1.00;;;;;;;;5069852;28;45420;-71
2022/02/25 05:35:33;;;;;;;;;0.75;0.75;;;;;;;;5074395;27;45813;-71
2022/02/25 05:37:59;;;;;;;;;2.50;0.75;;;;;;;;5073972;27;45434;-71
2022/02/25 05:40:24;;;;;;;;;0.25;0.25;;;;;;;;5071745;27;45408;-71
2022/02/25 05:42:50;;;;;;;;;1.00;1.00;;;;;;;;5074895;28;47063;-71
2022/02/25 05:45:15;;;;;;;;;2.50;1.50;;;;;;;;5074324;28;45919;-71
2022/02/25 05:47:41;;;;;;;;;2.25;1.00;;;;;;;;5074537;27;45403;-71
2022/02/25 05:50:07;;;;;;;;;2.00;0.00;;;;;;;;5059596;28;45526;-71
2022/02/25 05:52:33;;;;;;;;;1.00;1.00;;;;;;;;5074568;28;46418;-71
2022/02/25 05:54:58;;;;;;;;;1.00;1.00;;;;;;;;5075424;28;45401;-71
2022/02/25 05:57:24;;;;;;;;;0.00;0.00;;;;;;;;5076318;27;45464;-71
2022/02/25 05:59:49;;;;;;;;;2.50;1.00;;;;;;;;5074386;27;46326;-71
2022/02/25 06:02:14;;;;;;;;;0.67;0.67;;;;;;;;5074059;28;47066;-71
2022/02/25 06:04:39;;;;;;;;;2.00;2.00;;;;;;;;5073623;28;45475;-72
2022/02/25 06:07:05;;;;;;;;;1.00;1.00;;;;;;;;5075186;28;45651;-71
2022/02/25 06:09:30;;;;;;;;;0.00;0.00;;;;;;;;5074273;28;45749;-71
2022/02/25 06:11:55;;;;;;;;;1.00;1.00;;;;;;;;5073945;27;45391;-71
2022/02/25 06:14:20;;;;;;;;;6.00;1.00;;;;;;;;5074090;28;45434;-71
2022/02/25 06:16:46;;;;;;;;;3.25;0.75;;;;;;;;5074116;28;45451;-71
2022/02/25 06:19:11;;;;;;;;;1.00;1.00;;;;;;;;5087370;27;45441;-71
2022/02/25 06:21:36;;;;;;;;;0.75;0.75;;;;;;;;5077033;27;46389;-71
2022/02/25 06:24:01;;;;;;;;;1.00;0.00;;;;;;;;5077825;27;45481;-71
2022/02/25 06:26:27;;;;;;;;;1.00;1.00;;;;;;;;5077387;27;45347;-71
2022/02/25 06:28:53;;;;;;;;;0.25;0.25;;;;;;;;5077175;28;45305;-71
2022/02/25 06:31:18;;;;;;;;;1.00;1.00;;;;;;;;5078748;27;46381;-71
2022/02/25 06:33:43;;;;;;;;;2.75;1.00;;;;;;;;5076905;27;45525;-71
2022/02/25 06:36:09;;;;;;;;;3.00;2.00;;;;;;;;5077857;28;45379;-71
2022/02/25 06:38:34;;;;;;;;;0.25;0.25;;;;;;;;5077735;27;45481;-71
2022/02/25 06:41:00;;;;;;;;;0.00;0.00;;;;;;;;5077230;27;46252;-71
2022/02/25 06:43:25;;;;;;;;;0.50;0.50;;;;;;;;5077607;28;45477;-72
2022/02/25 06:45:50;;;;;;;;;0.00;0.00;;;;;;;;5080774;27;45606;-71
2022/02/25 06:48:15;;;;;;;;;2.00;0.00;;;;;;;;5081656;27;45445;-71
2022/02/25 06:50:41;;;;;;;;;1.00;1.00;;;;;;;;5076736;27;46337;-71
2022/02/25 06:53:06;;;;;;;;;1.50;1.00;;;;;;;;5076929;27;45438;-71
2022/02/25 06:55:31;;;;;;;;;1.00;1.00;;;;;;;;5077272;27;45352;-71
2022/02/25 06:57:57;;;;;;;;;0.25;0.00;;;;;;;;5078074;28;45297;-71
2022/02/25 07:00:22;;;;;;;;;0.00;0.00;;;;;;;;5076626;27;46253;-72
2022/02/25 07:02:49;;;;;;;;;0.50;0.00;;;;;;;;5076324;28;45368;-71
2022/02/25 07:05:14;;;;;;;;;1.50;0.00;;;;;;;;5076645;28;45640;-71
2022/02/25 07:07:39;;;;;;;;;1.00;0.00;;;;;;;;5076354;28;45332;-71
2022/02/25 07:10:06;;;;;;;;;1.00;1.00;;;;;;;;5079831;27;46469;-71
2022/02/25 07:12:31;;;;;;;;;1.00;1.00;;;;;;;;5076338;28;45510;-72
2022/02/25 07:14:57;;;;;;;;;0.50;0.50;;;;;;;;5076655;27;46987;-71
2022/02/25 07:17:22;;;;;;;;;4.25;0.00;;;;;;;;5076043;27;45377;-72
2022/02/25 07:19:47;;;;;;;;;2.00;0.00;;;;;;;;5077242;27;45839;-71
2022/02/25 07:22:12;;;;;;;;;1.00;1.00;;;;;;;;5077184;28;45429;-71
2022/02/25 07:24:40;;;;;;;;;2.00;0.00;;;;;;;;5076655;28;45578;-72
2022/02/25 07:27:06;;;;;;;;;0.00;0.00;;;;;;;;5076593;28;45549;-70
2022/02/25 07:29:32;;;;;;;;;2.00;1.00;;;;;;;;5080164;27;46186;-70
2022/02/25 07:31:57;;;;;;;;;3.00;1.00;;;;;;;;5078433;27;45557;-70
2022/02/25 07:34:23;;;;;;;;;1.00;0.00;;;;;;;;5076777;28;45412;-72
2022/02/25 07:36:48;;;;;;;;;1.50;0.50;;;;;;;;5080780;27;45413;-71
2022/02/25 07:39:14;;;;;;;;;0.00;0.00;;;;;;;;5080910;27;46670;-72
2022/02/25 07:41:39;;;;;;;;;0.00;0.00;;;;;;;;5075063;28;45285;-72
2022/02/25 07:44:04;;;;;;;;;1.00;1.00;;;;;;;;5076958;27;45307;-73
2022/02/25 07:46:29;;;;;;;;;0.25;0.25;;;;;;;;5077118;27;45181;-71
2022/02/25 07:48:54;;;;;;;;;2.50;1.00;;;;;;;;5082050;27;46577;-73
2022/02/25 07:51:20;;;;;;;;;1.00;1.00;;;;;;;;5077713;27;45552;-72
2022/02/25 07:53:46;;;;;;;;;1.00;0.00;;;;;;;;5073158;27;45469;-72
2022/02/25 07:56:12;;;;;;;;;2.00;0.33;;;;;;;;5058804;28;45597;-71
2022/02/25 07:58:37;;;;;;;;;0.00;0.00;;;;;;;;5073291;27;45527;-70
2022/02/25 08:01:02;;;;;;;;;0.00;0.00;;;;;;;;5076410;28;45565;-71
2022/02/25 08:03:27;;;;;;;;;0.00;0.00;;;;;;;;5066649;28;45592;-71
2022/02/25 08:05:53;;;;;;;;;0.00;0.00;;;;;;;;5067984;27;45289;-71
2022/02/25 08:08:18;;;;;;;;;1.00;1.00;;;;;;;;5075990;28;45599;-71
2022/02/25 08:10:43;;;;;;;;;1.00;1.00;;;;;;;;5075791;27;45438;-71
2022/02/25 08:13:09;;;;;;;;;2.00;1.00;;;;;;;;5076543;28;45408;-71
2022/02/25 08:15:34;;;;;;;;;3.00;1.00;;;;;;;;5070663;28;45355;-71
2022/02/25 08:18:00;;;;;;;;;1.00;1.00;;;;;;;;5074962;28;46091;-71
2022/02/25 08:20:25;;;;;;;;;1.50;0.00;;;;;;;;5084138;27;45442;-71
2022/02/25 08:22:51;;;;;;;;;3.00;1.00;;;;;;;;5086756;27;45547;-71
2022/02/25 08:25:17;;;;;;;;;2.00;1.00;;;;;;;;5077143;27;45584;-71
2022/02/25 08:27:43;;;;;;;;;0.00;0.00;;;;;;;;5076929;27;46272;-70
2022/02/25 08:30:14;;;;;;;;;2.00;0.75;;;;;;;;5074619;27;45397;-70
2022/02/25 08:32:40;;;;;;;;;0.00;0.00;;;;;;;;5075407;27;45600;-70
2022/02/25 08:35:08;;;;;;;;;3.25;1.00;;;;;;;;5074381;28;45570;-70
2022/02/25 08:37:33;;;;;;;;;0.25;0.25;;;;;;;;5074008;28;46404;-69
2022/02/25 08:39:58;;;;;;;;;0.00;0.00;;;;;;;;5063145;28;45511;-71
2022/02/25 08:42:24;;;;;;;;;1.00;0.50;;;;;;;;5071474;28;45302;-71
2022/02/25 08:44:49;;;;;;;;;2.00;0.00;;;;;;;;5074547;27;45506;-71
2022/02/25 08:47:14;;;;;;;;;0.00;0.00;;;;;;;;5075003;28;46534;-71
2022/02/25 08:49:39;;;;;;;;;1.67;0.67;;;;;;;;5075163;27;45435;-71
2022/02/25 08:52:09;;;;;;;;;0.67;0.67;;;;;;;;5073723;28;45552;-71
2022/02/25 08:54:34;;;;;;;;;1.00;1.00;;;;;;;;5075133;28;45848;-71
2022/02/25 08:56:59;;;;;;;;;1.00;0.00;;;;;;;;5090106;27;48432;-71
2022/02/25 08:59:24;;;;;;;;;1.00;1.00;;;;;;;;5074575;27;45463;-71
2022/02/25 09:01:50;;;;;;;;;0.00;0.00;;;;;;;;5075334;28;45501;-71
2022/02/25 09:04:15;;;;;;;;;2.00;0.33;;;;;;;;5076085;27;45534;-72
2022/02/25 09:06:40;;;;;;;;;0.00;0.00;;;;;;;;5074368;28;47716;-71
2022/02/25 09:09:06;;;;;;;;;4.25;1.00;;;;;;;;5077429;27;45496;-71
2022/02/25 09:11:31;;;;;;;;;0.00;0.00;;;;;;;;5056478;28;45432;-71
2022/02/25 09:13:57;;;;;;;;;0.33;0.33;;;;;;;;5074620;28;45374;-71
2022/02/25 09:16:22;;;;;;;;;1.00;0.67;;;;;;;;5081484;27;45399;-71
2022/02/25 09:18:48;;;;;;;;;5.00;0.67;;;;;;;;5081732;27;45566;-71
2022/02/25 09:21:13;;;;;;;;;2.00;0.00;;;;;;;;5079566;27;45434;-71
2022/02/25 09:23:39;;;;;;;;;0.00;0.00;;;;;;;;5077203;27;45243;-71
2022/02/25 09:26:04;;;;;;;;;0.67;0.67;;;;;;;;5075180;27;47596;-71
2022/02/25 09:28:29;;;;;;;;;2.25;0.25;;;;;;;;5074451;28;45435;-71
2022/02/25 09:30:55;;;;;;;;;0.00;0.00;;;;;;;;5075498;28;45698;-71
2022/02/25 09:33:20;;;;;;;;;0.50;0.00;;;;;;;;5076219;27;45430;-71
2022/02/25 09:35:45;;;;;;;;;0.00;0.00;;;;;;;;5073969;28;47794;-71
2022/02/25 09:38:11;;;;;;;;;1.00;1.00;;;;;;;;5075356;27;46297;-71
2022/02/25 09:40:37;;;;;;;;;0.00;0.00;;;;;;;;5076878;27;45485;-71
2022/02/25 09:43:03;;;;;;;;;2.33;2.00;;;;;;;;5075533;27;45270;-71
2022/02/25 09:45:28;;;;;;;;;0.33;0.33;;;;;;;;5057961;28;47748;-71
2022/02/25 09:47:54;;;;;;;;;0.33;0.33;;;;;;;;5073553;28;45479;-71
2022/02/25 09:50:22;;;;;;;;;1.00;1.00;;;;;;;;5074585;28;45487;-71
2022/02/25 09:52:48;;;;;;;;;2.00;0.67;;;;;;;;5074136;28;45388;-71
2022/02/25 09:55:24;;;;;;;;;0.00;0.00;;;;;;;;5074664;27;47147;-71
2022/02/25 09:57:50;;;;;;;;;1.00;1.00;;;;;;;;5077354;27;45572;-71
2022/02/25 10:00:15;;;;;;;;;2.50;0.50;;;;;;;;5077635;28;45575;-71
2022/02/25 10:02:42;;;;;;;;;1.25;0.75;;;;;;;;5080251;27;45523;-71
2022/02/25 10:05:09;;;;;;;;;1.00;1.00;;;;;;;;5078047;27;45745;-71
2022/02/25 10:07:36;;;;;;;;;0.00;0.00;;;;;;;;5077856;28;45397;-71
2022/02/25 10:10:02;;;;;;;;;3.00;1.00;;;;;;;;5078554;27;45337;-71
2022/02/25 10:12:27;;;;;;;;;3.00;1.00;;;;;;;;5077738;27;45499;-71
2022/02/25 10:14:53;;;;;;;;;0.00;0.00;;;;;;;;5078109;27;46245;-70
2022/02/25 10:17:18;;;;;;;;;0.00;0.00;;;;;;;;5078230;27;45304;-72
2022/02/25 10:19:45;;;;;;;;;1.00;1.00;;;;;;;;5078011;27;45593;-71
2022/02/25 10:22:21;;;;;;;;;1.00;1.00;;;;;;;;5078254;27;45583;-71
2022/02/25 10:24:54;;;;;;;;;1.00;1.00;;;;;;;;5076487;27;47705;-71
2022/02/25 10:27:20;;;;;;;;;1.33;1.00;;;;;;;;5077124;28;45368;-71
2022/02/25 10:29:51;;;;;;;;;0.33;0.33;;;;;;;;5077427;28;45520;-71
2022/02/25 10:32:18;;;;;;;;;0.00;0.00;;;;;;;;5077323;28;45442;-71
2022/02/25 10:34:43;;;;;;;;;3.67;0.33;;;;;;;;5064479;28;45498;-70
2022/02/25 10:37:08;;;;;;;;;1.00;1.00;;;;;;;;5077866;28;45272;-71
2022/02/25 10:39:36;;;;;;;;;1.67;1.00;;;;;;;;5077305;28;45329;-70
2022/02/25 10:42:01;;;;;;;;;3.33;1.33;;;;;;;;5077173;27;45642;-71
2022/02/25 10:44:49;;;;;;;;;3.00;1.00;;;;;;;;5076669;27;45448;-70
2022/02/25 10:47:25;;;;;;;;;0.33;0.33;;;;;;;;5061558;28;45473;-72
2022/02/25 10:49:58;;;;;;;;;3.00;1.75;;;;;;;;5058016;28;45756;-70
2022/02/25 10:52:26;;;;;;;;;0.00;0.00;;;;;;;;5074971;27;45444;-71
2022/02/25 10:54:52;;;;;;;;;2.00;1.00;;;;;;;;5057571;28;46425;-70
2022/02/25 10:57:19;;;;;;;;;0.00;0.00;;;;;;;;5076197;27;45279;-70
2022/02/25 10:59:46;;;;;;;;;0.00;0.00;;;;;;;;5075995;27;45229;-71
2022/02/25 11:02:26;;;;;;;;;2.67;0.00;;;;;;;;5076289;28;45386;-71
2022/02/25 11:04:59;;;;;;;;;0.00;0.00;;;;;;;;5076546;27;46176;-71
2022/02/25 11:07:26;;;;;;;;;0.00;0.00;;;;;;;;5072115;27;45585;-71
2022/02/25 11:09:51;;;;;;;;;0.00;0.00;;;;;;;;5077941;27;45731;-71
2022/02/25 11:12:18;;;;;;;;;2.00;0.00;;;;;;;;5076108;27;45463;-72
2022/02/25 11:14:43;;;;;;;;;1.00;1.00;;;;;;;;5076937;27;45403;-71
2022/02/25 11:17:09;;;;;;;;;2.25;0.50;;;;;;;;5075917;27;45411;-71
2022/02/25 11:19:34;;;;;;;;;2.00;0.67;;;;;;;;5057632;28;45467;-71
2022/02/25 11:21:59;;;;;;;;;2.00;0.00;;;;;;;;5076088;28;45489;-70
2022/02/25 11:24:26;;;;;;;;;3.00;0.00;;;;;;;;5056584;28;46988;-71
2022/02/25 11:26:51;;;;;;;;;0.00;0.00;;;;;;;;5074974;28;45490;-71
2022/02/25 11:29:17;;;;;;;;;1.00;1.00;;;;;;;;5074895;28;45272;-72
2022/02/25 11:31:43;;;;;;;;;0.00;0.00;;;;;;;;5075498;27;45438;-71
2022/02/25 11:34:08;;;;;;;;;1.00;0.00;;;;;;;;5077724;27;47409;-71
2022/02/25 11:36:41;;;;;;;;;0.50;0.00;;;;;;;;5074241;28;45432;-71
2022/02/25 11:39:26;;;;;;;;;4.00;1.00;;;;;;;;5074624;28;45360;-71
2022/02/25 11:41:59;;;;;;;;;3.00;1.00;;;;;;;;5081363;27;45505;-72
2022/02/25 11:44:25;;;;;;;;;2.00;1.00;;;;;;;;5087074;27;46452;-71
2022/02/25 11:46:50;;;;;;;;;0.25;0.25;;;;;;;;5074694;28;45395;-71
2022/02/25 11:49:23;;;;;;;;;1.00;0.00;;;;;;;;5026905;27;1377031;-71
2022/02/25 11:51:48;;;;;;;;;0.50;0.00;;;;;;;;5075546;28;45722;-72
2022/02/25 11:54:30;;;;;;;;;0.00;0.00;;;;;;;;5075558;27;45549;-72
2022/02/25 11:56:55;;;;;;;;;1.00;1.00;;;;;;;;5077907;27;45478;-72
2022/02/25 11:59:21;;;;;;;;;1.25;0.75;;;;;;;;5076525;27;45431;-71
2022/02/25 12:02:05;;;;;;;;;0.33;0.00;;;;;;;;5075882;27;45907;-72
2022/02/25 12:04:36;;;;;;;;;1.00;1.00;;;;;;;;5072623;27;51005;-71
2022/02/25 12:07:11;;;;;;;;;1.00;0.00;;;;;;;;5075836;28;45431;-72
2022/02/25 12:09:45;;;;;;;;;1.00;0.00;;;;;;;;5075701;28;45513;-71
2022/02/25 12:12:22;;;;;;;;;2.00;1.67;;;;;;;;5075510;27;45390;-71
2022/02/25 12:14:57;;;;;;;;;1.00;0.33;;;;;;;;5061874;28;47580;-73
2022/02/25 12:17:34;;;;;;;;;0.25;0.25;;;;;;;;5072234;27;45542;-78
2022/02/25 12:20:03;;;;;;;;;1.00;1.00;;;;;;;;5041196;28;45562;-78
2022/02/25 12:22:29;;;;;;;;;2.75;0.00;;;;;;;;5076164;27;45499;-77
2022/02/25 12:24:54;;;;;;;;;1.33;0.00;;;;;;;;5075880;28;46554;-78
2022/02/25 12:27:29;;;;;;;;;0.00;0.00;;;;;;;;5075411;27;45348;-76
2022/02/25 12:29:54;;;;;;;;;0.25;0.25;;;;;;;;5075156;28;45410;-77
2022/02/25 12:32:38;;;;;;;;;0.33;0.33;;;;;;;;5075756;27;45406;-78
2022/02/25 12:35:10;;;;;;;;;0.00;0.00;;;;;;;;5060511;28;46364;-75
2022/02/25 12:37:36;;;;;;;;;3.33;1.00;;;;;;;;5091110;27;45625;-75
2022/02/25 12:40:05;;;;;;;;;1.75;1.00;;;;;;;;5077644;27;45315;-74
2022/02/25 12:42:30;;;;;;;;;1.33;0.00;;;;;;;;5075866;27;45273;-74
2022/02/25 12:44:55;;;;;;;;;1.00;1.00;;;;;;;;5075735;27;45533;-75
2022/02/25 12:47:20;;;;;;;;;2.00;0.00;;;;;;;;5075263;28;45470;-76
2022/02/25 12:49:46;;;;;;;;;1.00;1.00;;;;;;;;5076064;27;45506;-77
2022/02/25 12:52:13;;;;;;;;;2.75;0.00;;;;;;;;5083889;27;45497;-77
2022/02/25 12:54:39;;;;;;;;;2.67;1.00;;;;;;;;5080093;27;45528;-77
2022/02/25 12:57:07;;;;;;;;;3.00;1.50;;;;;;;;5056847;28;45530;-76
2022/02/25 12:59:43;;;;;;;;;0.00;0.00;;;;;;;;5075112;28;45602;-75
2022/02/25 13:02:11;;;;;;;;;1.00;1.00;;;;;;;;5075038;28;45328;-74
2022/02/25 13:04:45;;;;;;;;;0.00;0.00;;;;;;;;5074694;28;46520;-75
2022/02/25 13:07:11;;;;;;;;;2.00;0.67;;;;;;;;5074554;28;45453;-75
2022/02/25 13:09:37;;;;;;;;;2.00;0.67;;;;;;;;5074929;27;45445;-75
2022/02/25 13:12:06;;;;;;;;;0.67;0.00;;;;;;;;5077234;27;45402;-74
2022/02/25 13:14:42;;;;;;;;;0.67;0.67;;;;;;;;5058073;27;47834;-75
2022/02/25 13:17:07;;;;;;;;;1.00;1.00;;;;;;;;5074830;28;45472;-75
2022/02/25 13:19:37;;;;;;;;;2.67;1.00;;;;;;;;5084475;27;45450;-75
2022/02/25 13:22:04;;;;;;;;;0.00;0.00;;;;;;;;5075522;27;45395;-74
2022/02/25 13:24:30;;;;;;;;;1.25;1.25;;;;;;;;5074754;27;45509;-75
2022/02/25 13:26:56;;;;;;;;;1.75;1.00;;;;;;;;5075505;27;45407;-75
2022/02/25 13:29:21;;;;;;;;;2.25;1.00;;;;;;;;5075383;28;45444;-75
2022/02/25 13:31:54;;;;;;;;;0.75;0.75;;;;;;;;5083769;27;45575;-75
2022/02/25 13:34:19;;;;;;;;;2.25;1.25;;;;;;;;5075032;27;45496;-74
2022/02/25 13:36:44;;;;;;;;;0.33;0.33;;;;;;;;5074425;27;45613;-75
2022/02/25 13:39:09;;;;;;;;;5.00;1.00;;;;;;;;5074847;27;45450;-75
2022/02/25 13:41:35;;;;;;;;;1.50;1.50;;;;;;;;5074238;27;45493;-75
2022/02/25 13:44:09;;;;;;;;;1.33;1.00;;;;;;;;5089839;27;45408;-75
2022/02/25 13:46:43;;;;;;;;;1.00;1.00;;;;;;;;5074510;28;45403;-74
2022/02/25 13:52:27;;;;;;;;;1.00;1.00;;;;;;;;5074809;28;45383;-75
2022/02/25 13:55:02;;;;;;;;;3.25;1.00;;;;;;;;5074444;28;46377;-75
2022/02/25 13:57:35;;;;;;;;;1.00;1.00;;;;;;;;5074408;27;45486;-74
2022/02/25 14:00:04;;;;;;;;;0.00;0.00;;;;;;;;5056088;28;45475;-75
2022/02/25 14:02:32;;;;;;;;;1.25;0.50;;;;;;;;5084514;27;45603;-75
2022/02/25 14:05:06;;;;;;;;;1.00;0.00;;;;;;;;5073951;28;46204;-75
2022/02/25 14:07:33;;;;;;;;;1.00;1.00;;;;;;;;5071342;28;45434;-74
2022/02/25 14:09:58;;;;;;;;;0.00;0.00;;;;;;;;5074920;28;45479;-75
2022/02/25 14:12:23;;;;;;;;;1.00;1.00;;;;;;;;5074450;27;45455;-74
2022/02/25 14:14:50;;;;;;;;;2.67;0.00;;;;;;;;5082523;27;45509;-75
2022/02/25 14:17:18;;;;;;;;;0.67;0.67;;;;;;;;5074173;28;45414;-75
2022/02/25 14:19:55;;;;;;;;;2.00;1.00;;;;;;;;5068485;27;45593;-74
2022/02/25 14:22:21;;;;;;;;;1.00;1.00;;;;;;;;5072573;28;45441;-74
2022/02/25 14:24:47;;;;;;;;;3.00;0.50;;;;;;;;5050671;28;46694;-75
2022/02/25 14:27:17;;;;;;;;;0.75;0.75;;;;;;;;5069418;28;45410;-74
2022/02/25 14:29:55;;;;;;;;;4.00;1.00;;;;;;;;5069343;27;45331;-74
2022/02/25 14:32:20;;;;;;;;;2.75;1.00;;;;;;;;5066946;27;45584;-74
2022/02/25 14:34:45;;;;;;;;;1.00;1.00;;;;;;;;5072074;27;45500;-74
2022/02/25 14:37:21;;;;;;;;;1.25;1.00;;;;;;;;5071262;28;45460;-74
2022/02/25 14:39:46;;;;;;;;;6.50;1.25;;;;;;;;5070975;27;45541;-75
2022/02/25 14:42:12;;;;;;;;;0.75;0.75;;;;;;;;5072066;28;45421;-75
2022/02/25 14:44:37;;;;;;;;;2.25;1.00;;;;;;;;5072485;28;46591;-75
2022/02/25 14:47:03;;;;;;;;;2.33;1.67;;;;;;;;5071789;28;45699;-73
2022/02/25 14:49:28;;;;;;;;;3.75;1.00;;;;;;;;5077569;27;45378;-75
2022/02/25 14:51:53;;;;;;;;;3.00;1.25;;;;;;;;5073802;28;50892;-75